sensor_id;sensor_type;location;lat;lon;timestamp;pressure;altitude;pressure_sealevel;temperature;humidity
12360;BME280;6244;51.460;7.090;2022-11-13T00:03:10;49024.41;;;-141.68;62.10
12360;BME280;6244;51.460;7.090;2022-11-13T00:08:07;49026.38;;;-141.68;62.31
12360;BME280;6244;51.460;7.090;2022-11-13T00:13:04;49026.38;;;-141.68;62.20
12360;BME280;6244;51.460;7.090;2022-11-13T00:18:02;49026.38;;;-141.68;61.87
12360;BME280;6244;51.460;7.090;2022-11-13T00:22:59;49026.38;;;-141.68;61.95
12360;BME280;6244;51.460;7.090;2022-11-13T00:27:55;49026.38;;;-141.68;62.25
12360;BME280;6244;51.460;7.090;2022-11-13T00:32:52;49026.38;;;-141.68;61.94
12360;BME280;6244;51.460;7.090;2022-11-13T00:37:50;49026.38;;;-141.68;62.75
12360;BME280;6244;51.460;7.090;2022-11-13T00:42:46;49024.41;;;-141.68;63.05
12360;BME280;6244;51.460;7.090;2022-11-13T00:47:43;49024.41;;;-141.68;62.88
12360;BME280;6244;51.460;7.090;2022-11-13T00:52:39;49024.41;;;-141.68;63.45
12360;BME280;6244;51.460;7.090;2022-11-13T00:57:37;49026.38;;;-141.68;63.94
12360;BME280;6244;51.460;7.090;2022-11-13T01:02:34;49026.38;;;-141.68;64.25
12360;BME280;6244;51.460;7.090;2022-11-13T01:07:30;49026.38;;;-141.68;64.32
12360;BME280;6244;51.460;7.090;2022-11-13T01:12:27;49026.38;;;-141.68;64.29
12360;BME280;6244;51.460;7.090;2022-11-13T01:17:25;49026.38;;;-141.68;64.08
12360;BME280;6244;51.460;7.090;2022-11-13T01:22:22;49026.38;;;-141.68;64.07
12360;BME280;6244;51.460;7.090;2022-11-13T01:27:18;49026.38;;;-141.68;63.88
12360;BME280;6244;51.460;7.090;2022-11-13T01:32:15;49026.38;;;-141.68;63.91
12360;BME280;6244;51.460;7.090;2022-11-13T01:37:13;49024.41;;;-141.68;64.13
12360;BME280;6244;51.460;7.090;2022-11-13T01:42:09;49024.41;;;-141.68;64.11
12360;BME280;6244;51.460;7.090;2022-11-13T01:47:07;49022.41;;;-141.68;64.00
12360;BME280;6244;51.460;7.090;2022-11-13T01:52:06;49026.38;;;-141.68;63.60
12360;BME280;6244;51.460;7.090;2022-11-13T01:57:08;49026.38;;;-141.68;63.69
12360;BME280;6244;51.460;7.090;2022-11-13T02:02:08;49026.38;;;-141.68;63.60
12360;BME280;6244;51.460;7.090;2022-11-13T02:07:08;49026.38;;;-141.68;63.64
12360;BME280;6244;51.460;7.090;2022-11-13T02:12:10;49024.41;;;-141.68;63.73
12360;BME280;6244;51.460;7.090;2022-11-13T02:17:10;49024.41;;;-141.68;63.79
12360;BME280;6244;51.460;7.090;2022-11-13T02:22:15;49024.41;;;-141.68;63.89
12360;BME280;6244;51.460;7.090;2022-11-13T02:27:20;49026.38;;;-141.68;64.14
12360;BME280;6244;51.460;7.090;2022-11-13T02:32:19;49022.41;;;-141.68;64.19
12360;BME280;6244;51.460;7.090;2022-11-13T02:37:15;49030.38;;;-141.68;64.10
12360;BME280;6244;51.460;7.090;2022-11-13T02:42:12;49024.41;;;-141.68;64.08
12360;BME280;6244;51.460;7.090;2022-11-13T02:47:10;49024.41;;;-141.68;64.42
12360;BME280;6244;51.460;7.090;2022-11-13T02:52:07;49024.41;;;-141.68;65.11
12360;BME280;6244;51.460;7.090;2022-11-13T02:57:03;49024.41;;;-141.68;63.15
12360;BME280;6244;51.460;7.090;2022-11-13T03:02:00;49026.38;;;-141.68;59.43
12360;BME280;6244;51.460;7.090;2022-11-13T03:06:58;49024.41;;;-141.68;59.32
12360;BME280;6244;51.460;7.090;2022-11-13T03:11:54;49026.38;;;-141.68;60.73
12360;BME280;6244;51.460;7.090;2022-11-13T03:16:51;49024.41;;;-141.68;62.16
12360;BME280;6244;51.460;7.090;2022-11-13T03:21:48;49026.38;;;-141.68;63.62
12360;BME280;6244;51.460;7.090;2022-11-13T03:26:45;49026.38;;;-141.68;64.28
12360;BME280;6244;51.460;7.090;2022-11-13T03:31:42;49028.38;;;-141.68;64.09
12360;BME280;6244;51.460;7.090;2022-11-13T03:36:38;49026.38;;;-141.68;63.01
12360;BME280;6244;51.460;7.090;2022-11-13T03:41:35;49024.41;;;-141.68;62.28
12360;BME280;6244;51.460;7.090;2022-11-13T03:46:33;49024.41;;;-141.68;61.39
12360;BME280;6244;51.460;7.090;2022-11-13T03:51:29;49026.38;;;-141.68;61.96
12360;BME280;6244;51.460;7.090;2022-11-13T03:56:26;49022.41;;;-141.68;62.87
12360;BME280;6244;51.460;7.090;2022-11-13T04:01:22;49022.41;;;-141.68;63.86
12360;BME280;6244;51.460;7.090;2022-11-13T04:06:20;49026.38;;;-141.68;64.72
12360;BME280;6244;51.460;7.090;2022-11-13T04:11:17;49024.41;;;-141.68;65.21
12360;BME280;6244;51.460;7.090;2022-11-13T04:16:13;49026.38;;;-141.68;65.13
12360;BME280;6244;51.460;7.090;2022-11-13T04:21:10;49026.38;;;-141.68;65.18
12360;BME280;6244;51.460;7.090;2022-11-13T04:26:08;49024.41;;;-141.68;65.12
12360;BME280;6244;51.460;7.090;2022-11-13T04:31:05;49024.41;;;-141.68;65.18
12360;BME280;6244;51.460;7.090;2022-11-13T04:36:02;49026.38;;;-141.68;65.16
12360;BME280;6244;51.460;7.090;2022-11-13T04:40:58;49026.38;;;-141.68;65.24
12360;BME280;6244;51.460;7.090;2022-11-13T04:46:14;49024.41;;;-141.68;65.25
12360;BME280;6244;51.460;7.090;2022-11-13T04:51:11;49026.38;;;-141.68;65.83
12360;BME280;6244;51.460;7.090;2022-11-13T04:56:08;49026.38;;;-141.68;64.69
12360;BME280;6244;51.460;7.090;2022-11-13T05:01:04;49026.38;;;-141.68;62.26
12360;BME280;6244;51.460;7.090;2022-11-13T05:06:04;49024.41;;;-141.68;61.28
12360;BME280;6244;51.460;7.090;2022-11-13T05:11:02;49022.41;;;-141.68;60.72
12360;BME280;6244;51.460;7.090;2022-11-13T05:16:00;49026.38;;;-141.68;59.48
12360;BME280;6244;51.460;7.090;2022-11-13T05:20:56;49022.41;;;-141.68;59.21
12360;BME280;6244;51.460;7.090;2022-11-13T05:26:00;49026.38;;;-141.68;60.04
12360;BME280;6244;51.460;7.090;2022-11-13T05:31:02;49024.41;;;-141.68;60.99
12360;BME280;6244;51.460;7.090;2022-11-13T05:36:03;49024.41;;;-141.68;61.94
12360;BME280;6244;51.460;7.090;2022-11-13T05:41:02;49026.38;;;-141.68;62.90
12360;BME280;6244;51.460;7.090;2022-11-13T05:46:00;49026.38;;;-141.68;62.75
12360;BME280;6244;51.460;7.090;2022-11-13T05:51:01;49026.38;;;-141.68;63.45
12360;BME280;6244;51.460;7.090;2022-11-13T05:55:59;49026.38;;;-141.68;63.81
12360;BME280;6244;51.460;7.090;2022-11-13T06:01:06;49026.38;;;-141.68;63.58
12360;BME280;6244;51.460;7.090;2022-11-13T06:06:03;49022.41;;;-141.68;63.41
12360;BME280;6244;51.460;7.090;2022-11-13T06:11:02;49022.41;;;-141.68;62.87
12360;BME280;6244;51.460;7.090;2022-11-13T06:16:00;49024.41;;;-141.68;62.96
12360;BME280;6244;51.460;7.090;2022-11-13T06:21:01;49024.41;;;-141.68;62.85
12360;BME280;6244;51.460;7.090;2022-11-13T06:26:01;49022.41;;;-141.68;62.79
12360;BME280;6244;51.460;7.090;2022-11-13T06:31:01;49024.41;;;-141.68;62.85
12360;BME280;6244;51.460;7.090;2022-11-13T06:36:01;49026.38;;;-141.68;62.99
12360;BME280;6244;51.460;7.090;2022-11-13T06:40:59;49026.38;;;-141.68;63.00
12360;BME280;6244;51.460;7.090;2022-11-13T06:45:56;49024.41;;;-141.68;63.08
12360;BME280;6244;51.460;7.090;2022-11-13T06:50:52;49024.41;;;-141.68;63.05
12360;BME280;6244;51.460;7.090;2022-11-13T06:55:50;49024.41;;;-141.68;62.96
12360;BME280;6244;51.460;7.090;2022-11-13T07:00:47;49026.38;;;-141.68;62.99
12360;BME280;6244;51.460;7.090;2022-11-13T07:05:44;49024.41;;;-141.68;63.34
12360;BME280;6244;51.460;7.090;2022-11-13T07:10:41;49028.38;;;-141.68;62.82
12360;BME280;6244;51.460;7.090;2022-11-13T07:15:40;49022.41;;;-141.68;62.56
12360;BME280;6244;51.460;7.090;2022-11-13T07:20:36;49022.41;;;-141.68;62.21
12360;BME280;6244;51.460;7.090;2022-11-13T07:25:33;49024.41;;;-141.68;62.45
12360;BME280;6244;51.460;7.090;2022-11-13T07:30:29;49026.38;;;-141.68;62.11
12360;BME280;6244;51.460;7.090;2022-11-13T07:35:27;49026.38;;;-141.68;62.12
12360;BME280;6244;51.460;7.090;2022-11-13T07:40:24;49026.38;;;-141.68;62.59
12360;BME280;6244;51.460;7.090;2022-11-13T07:45:20;49026.38;;;-141.68;62.94
12360;BME280;6244;51.460;7.090;2022-11-13T07:50:17;49024.41;;;-141.68;63.09
12360;BME280;6244;51.460;7.090;2022-11-13T07:55:15;49024.41;;;-141.68;63.01
12360;BME280;6244;51.460;7.090;2022-11-13T08:00:12;49026.38;;;-141.68;63.48
12360;BME280;6244;51.460;7.090;2022-11-13T08:05:09;49024.41;;;-141.68;63.38
12360;BME280;6244;51.460;7.090;2022-11-13T08:10:06;49026.38;;;-141.68;63.20
12360;BME280;6244;51.460;7.090;2022-11-13T08:15:05;49026.38;;;-141.68;63.18
12360;BME280;6244;51.460;7.090;2022-11-13T08:20:03;49024.41;;;-141.68;63.10
12360;BME280;6244;51.460;7.090;2022-11-13T08:25:00;49024.41;;;-141.68;63.29
12360;BME280;6244;51.460;7.090;2022-11-13T08:29:56;49026.38;;;-141.68;63.11
12360;BME280;6244;51.460;7.090;2022-11-13T08:34:54;49024.41;;;-141.68;62.84
12360;BME280;6244;51.460;7.090;2022-11-13T08:39:50;49022.41;;;-141.68;62.78
12360;BME280;6244;51.460;7.090;2022-11-13T08:44:47;49022.41;;;-141.68;62.91
12360;BME280;6244;51.460;7.090;2022-11-13T08:49:44;49024.41;;;-141.68;62.91
12360;BME280;6244;51.460;7.090;2022-11-13T08:54:41;49024.41;;;-141.68;61.93
12360;BME280;6244;51.460;7.090;2022-11-13T08:59:38;49026.38;;;-141.68;61.39
12360;BME280;6244;51.460;7.090;2022-11-13T09:04:34;49024.41;;;-141.68;62.33
12360;BME280;6244;51.460;7.090;2022-11-13T09:09:31;49024.41;;;-141.68;57.38
12360;BME280;6244;51.460;7.090;2022-11-13T09:14:29;49022.41;;;-141.68;43.05
12360;BME280;6244;51.460;7.090;2022-11-13T09:19:26;49026.38;;;-141.68;34.22
12360;BME280;6244;51.460;7.090;2022-11-13T09:24:23;49028.38;;;-141.68;31.60
12360;BME280;6244;51.460;7.090;2022-11-13T09:29:20;49026.38;;;-141.68;30.70
12360;BME280;6244;51.460;7.090;2022-11-13T09:34:19;49026.38;;;-141.68;29.60
12360;BME280;6244;51.460;7.090;2022-11-13T09:39:15;49026.38;;;-141.68;29.65
12360;BME280;6244;51.460;7.090;2022-11-13T09:44:15;49028.38;;;-141.68;28.80
12360;BME280;6244;51.460;7.090;2022-11-13T09:49:14;49026.38;;;-141.68;27.63
12360;BME280;6244;51.460;7.090;2022-11-13T09:54:13;49028.38;;;-141.68;27.16
12360;BME280;6244;51.460;7.090;2022-11-13T09:59:20;49026.38;;;-141.68;27.77
12360;BME280;6244;51.460;7.090;2022-11-13T10:04:27;49026.38;;;-141.68;27.56
12360;BME280;6244;51.460;7.090;2022-11-13T10:09:35;49026.38;;;-141.68;27.93
12360;BME280;6244;51.460;7.090;2022-11-13T10:14:41;49026.38;;;-141.68;27.55
12360;BME280;6244;51.460;7.090;2022-11-13T10:19:44;49026.38;;;-141.68;27.32
12360;BME280;6244;51.460;7.090;2022-11-13T10:24:48;49026.38;;;-141.68;26.67
12360;BME280;6244;51.460;7.090;2022-11-13T10:29:46;49026.38;;;-141.68;26.75
12360;BME280;6244;51.460;7.090;2022-11-13T10:34:43;49028.38;;;-141.68;27.01
12360;BME280;6244;51.460;7.090;2022-11-13T10:39:43;49026.38;;;-141.68;26.92
12360;BME280;6244;51.460;7.090;2022-11-13T10:44:52;49028.38;;;-141.68;26.17
12360;BME280;6244;51.460;7.090;2022-11-13T10:49:49;49026.38;;;-141.68;26.09
12360;BME280;6244;51.460;7.090;2022-11-13T10:54:46;49026.38;;;-141.68;26.30
12360;BME280;6244;51.460;7.090;2022-11-13T10:59:44;49026.38;;;-141.68;26.20
12360;BME280;6244;51.460;7.090;2022-11-13T11:04:40;49026.38;;;-141.68;26.22
12360;BME280;6244;51.460;7.090;2022-11-13T11:09:37;49026.38;;;-141.68;25.84
12360;BME280;6244;51.460;7.090;2022-11-13T11:14:40;49026.38;;;-141.68;25.80
12360;BME280;6244;51.460;7.090;2022-11-13T11:19:39;49028.38;;;-141.68;25.60
12360;BME280;6244;51.460;7.090;2022-11-13T11:24:42;49026.38;;;-141.68;26.08
12360;BME280;6244;51.460;7.090;2022-11-13T11:29:43;49028.38;;;-141.68;26.55
12360;BME280;6244;51.460;7.090;2022-11-13T11:34:44;49026.38;;;-141.68;26.68
12360;BME280;6244;51.460;7.090;2022-11-13T11:39:46;49028.38;;;-141.68;25.94
12360;BME280;6244;51.460;7.090;2022-11-13T11:44:54;49024.41;;;-141.68;25.47
12360;BME280;6244;51.460;7.090;2022-11-13T11:49:55;49024.41;;;-141.68;26.37
12360;BME280;6244;51.460;7.090;2022-11-13T11:54:58;49026.38;;;-141.68;26.60
12360;BME280;6244;51.460;7.090;2022-11-13T12:00:03;49026.38;;;-141.68;27.08
12360;BME280;6244;51.460;7.090;2022-11-13T12:05:15;49026.38;;;-141.68;26.97
12360;BME280;6244;51.460;7.090;2022-11-13T12:10:23;49026.38;;;-141.68;26.72
12360;BME280;6244;51.460;7.090;2022-11-13T12:15:27;49026.38;;;-141.68;27.42
12360;BME280;6244;51.460;7.090;2022-11-13T12:20:35;49028.38;;;-141.68;26.83
12360;BME280;6244;51.460;7.090;2022-11-13T12:25:39;49024.41;;;-141.68;27.35
12360;BME280;6244;51.460;7.090;2022-11-13T12:30:53;49024.41;;;-141.68;28.19
12360;BME280;6244;51.460;7.090;2022-11-13T12:35:54;49024.41;;;-141.68;29.00
12360;BME280;6244;51.460;7.090;2022-11-13T12:40:56;49026.38;;;-141.68;31.39
12360;BME280;6244;51.460;7.090;2022-11-13T12:46:01;49026.38;;;-141.68;32.79
12360;BME280;6244;51.460;7.090;2022-11-13T12:51:04;49026.38;;;-141.68;34.83
12360;BME280;6244;51.460;7.090;2022-11-13T12:56:02;49024.41;;;-141.68;37.53
12360;BME280;6244;51.460;7.090;2022-11-13T13:01:02;49028.38;;;-141.68;37.72
12360;BME280;6244;51.460;7.090;2022-11-13T13:06:16;49026.38;;;-141.68;40.28
12360;BME280;6244;51.460;7.090;2022-11-13T13:11:23;49028.38;;;-141.68;39.45
12360;BME280;6244;51.460;7.090;2022-11-13T13:16:26;49024.41;;;-141.68;40.90
12360;BME280;6244;51.460;7.090;2022-11-13T13:21:24;49026.38;;;-141.68;41.16
12360;BME280;6244;51.460;7.090;2022-11-13T13:26:22;49024.41;;;-141.68;42.14
12360;BME280;6244;51.460;7.090;2022-11-13T13:31:27;49026.38;;;-141.68;44.40
12360;BME280;6244;51.460;7.090;2022-11-13T13:36:35;49026.38;;;-141.68;43.61
12360;BME280;6244;51.460;7.090;2022-11-13T13:41:58;49026.38;;;-141.68;43.03
12360;BME280;6244;51.460;7.090;2022-11-13T13:46:58;49026.38;;;-141.68;42.98
12360;BME280;6244;51.460;7.090;2022-11-13T13:51:56;49022.41;;;-141.68;47.22
12360;BME280;6244;51.460;7.090;2022-11-13T13:56:55;49022.41;;;-141.68;48.10
12360;BME280;6244;51.460;7.090;2022-11-13T14:01:53;49024.41;;;-141.68;47.62
12360;BME280;6244;51.460;7.090;2022-11-13T14:06:53;49024.41;;;-141.68;46.52
12360;BME280;6244;51.460;7.090;2022-11-13T14:11:59;49028.38;;;-141.68;47.86
12360;BME280;6244;51.460;7.090;2022-11-13T14:16:58;49026.38;;;-141.68;49.72
12360;BME280;6244;51.460;7.090;2022-11-13T14:21:57;49024.41;;;-141.68;50.15
12360;BME280;6244;51.460;7.090;2022-11-13T14:26:55;49024.41;;;-141.68;50.99
12360;BME280;6244;51.460;7.090;2022-11-13T14:32:01;49026.38;;;-141.68;53.13
12360;BME280;6244;51.460;7.090;2022-11-13T14:42:26;49024.41;;;-141.68;55.09
12360;BME280;6244;51.460;7.090;2022-11-13T14:47:26;49026.38;;;-141.68;55.97
12360;BME280;6244;51.460;7.090;2022-11-13T14:52:27;49024.41;;;-141.68;56.72
12360;BME280;6244;51.460;7.090;2022-11-13T14:57:23;49026.38;;;-141.68;56.96
12360;BME280;6244;51.460;7.090;2022-11-13T15:02:20;49024.41;;;-141.68;57.57
12360;BME280;6244;51.460;7.090;2022-11-13T15:07:23;49022.41;;;-141.68;58.00
12360;BME280;6244;51.460;7.090;2022-11-13T15:12:21;49026.38;;;-141.68;58.13
12360;BME280;6244;51.460;7.090;2022-11-13T15:17:20;49026.38;;;-141.68;58.07
12360;BME280;6244;51.460;7.090;2022-11-13T15:22:18;49026.38;;;-141.68;59.03
12360;BME280;6244;51.460;7.090;2022-11-13T15:27:16;49026.38;;;-141.68;59.78
12360;BME280;6244;51.460;7.090;2022-11-13T15:32:14;49024.41;;;-141.68;58.31
12360;BME280;6244;51.460;7.090;2022-11-13T15:37:11;49028.38;;;-141.68;58.29
12360;BME280;6244;51.460;7.090;2022-11-13T15:42:17;49024.41;;;-141.68;57.73
12360;BME280;6244;51.460;7.090;2022-11-13T15:47:24;49026.38;;;-141.68;58.40
12360;BME280;6244;51.460;7.090;2022-11-13T15:52:22;49026.38;;;-141.68;58.37
12360;BME280;6244;51.460;7.090;2022-11-13T15:57:22;49026.38;;;-141.68;57.20
12360;BME280;6244;51.460;7.090;2022-11-13T16:02:19;49026.38;;;-141.68;56.91
12360;BME280;6244;51.460;7.090;2022-11-13T16:07:18;49024.41;;;-141.68;56.76
12360;BME280;6244;51.460;7.090;2022-11-13T16:12:16;49024.41;;;-141.68;56.58
12360;BME280;6244;51.460;7.090;2022-11-13T16:17:16;49026.38;;;-141.68;56.43
12360;BME280;6244;51.460;7.090;2022-11-13T16:22:20;49026.38;;;-141.68;56.22
12360;BME280;6244;51.460;7.090;2022-11-13T16:27:23;49026.38;;;-141.68;55.72
12360;BME280;6244;51.460;7.090;2022-11-13T16:32:23;49024.41;;;-141.68;55.72
12360;BME280;6244;51.460;7.090;2022-11-13T16:37:24;49024.41;;;-141.68;55.35
12360;BME280;6244;51.460;7.090;2022-11-13T16:42:22;49024.41;;;-141.68;55.05
12360;BME280;6244;51.460;7.090;2022-11-13T17:05:20;49026.38;;;-141.68;55.19
12360;BME280;6244;51.460;7.090;2022-11-13T17:10:33;49024.41;;;-141.68;56.13
12360;BME280;6244;51.460;7.090;2022-11-13T17:15:55;49026.38;;;-141.68;56.49
12360;BME280;6244;51.460;7.090;2022-11-13T17:21:13;49024.41;;;-141.68;56.51
12360;BME280;6244;51.460;7.090;2022-11-13T17:28:30;49026.38;;;-141.68;56.83
12360;BME280;6244;51.460;7.090;2022-11-13T17:44:09;49028.38;;;-141.68;57.14
12360;BME280;6244;51.460;7.090;2022-11-13T17:49:36;49026.38;;;-141.68;57.71
12360;BME280;6244;51.460;7.090;2022-11-13T17:54:47;49026.38;;;-141.68;57.89
12360;BME280;6244;51.460;7.090;2022-11-13T18:00:10;49024.41;;;-141.68;57.29
12360;BME280;6244;51.460;7.090;2022-11-13T18:05:15;49026.38;;;-141.68;56.60
12360;BME280;6244;51.460;7.090;2022-11-13T18:10:48;49024.41;;;-141.68;56.41
12360;BME280;6244;51.460;7.090;2022-11-13T18:15:51;49024.41;;;-141.68;56.34
12360;BME280;6244;51.460;7.090;2022-11-13T18:21:43;49024.41;;;-141.68;56.16
12360;BME280;6244;51.460;7.090;2022-11-13T18:32:54;49024.41;;;-141.68;55.91
12360;BME280;6244;51.460;7.090;2022-11-13T18:37:52;49022.41;;;-141.68;55.82
12360;BME280;6244;51.460;7.090;2022-11-13T18:42:51;49026.38;;;-141.68;55.98
12360;BME280;6244;51.460;7.090;2022-11-13T18:47:49;49024.41;;;-141.68;55.82
12360;BME280;6244;51.460;7.090;2022-11-13T18:52:47;49026.38;;;-141.68;55.89
12360;BME280;6244;51.460;7.090;2022-11-13T18:57:44;49028.38;;;-141.68;56.08
12360;BME280;6244;51.460;7.090;2022-11-13T19:02:40;49024.41;;;-141.68;56.21
12360;BME280;6244;51.460;7.090;2022-11-13T19:07:37;49026.38;;;-141.68;56.21
12360;BME280;6244;51.460;7.090;2022-11-13T19:12:35;49026.38;;;-141.68;56.11
12360;BME280;6244;51.460;7.090;2022-11-13T19:17:32;49024.41;;;-141.68;56.16
12360;BME280;6244;51.460;7.090;2022-11-13T19:22:31;49022.41;;;-141.68;56.10
12360;BME280;6244;51.460;7.090;2022-11-13T19:27:28;49024.41;;;-141.68;56.11
12360;BME280;6244;51.460;7.090;2022-11-13T19:32:26;49026.38;;;-141.68;56.13
12360;BME280;6244;51.460;7.090;2022-11-13T19:37:23;49024.41;;;-141.68;55.86
12360;BME280;6244;51.460;7.090;2022-11-13T19:42:22;49026.38;;;-141.68;55.82
12360;BME280;6244;51.460;7.090;2022-11-13T19:47:21;49024.41;;;-141.68;56.03
12360;BME280;6244;51.460;7.090;2022-11-13T19:52:20;49024.41;;;-141.68;55.93
12360;BME280;6244;51.460;7.090;2022-11-13T19:57:17;49024.41;;;-141.68;55.99
12360;BME280;6244;51.460;7.090;2022-11-13T20:02:17;49028.38;;;-141.68;55.87
12360;BME280;6244;51.460;7.090;2022-11-13T20:07:20;49026.38;;;-141.68;55.96
12360;BME280;6244;51.460;7.090;2022-11-13T20:12:43;49028.38;;;-141.68;55.83
12360;BME280;6244;51.460;7.090;2022-11-13T20:31:16;49024.41;;;-141.68;56.00
12360;BME280;6244;51.460;7.090;2022-11-13T20:41:24;49028.38;;;-141.68;55.97
12360;BME280;6244;51.460;7.090;2022-11-13T20:47:16;49024.41;;;-141.68;55.94
12360;BME280;6244;51.460;7.090;2022-11-13T20:52:27;49026.38;;;-141.68;56.20
12360;BME280;6244;51.460;7.090;2022-11-13T21:03:12;49026.38;;;-141.68;55.99
12360;BME280;6244;51.460;7.090;2022-11-13T21:08:09;49022.41;;;-141.68;56.10
12360;BME280;6244;51.460;7.090;2022-11-13T21:13:10;49026.38;;;-141.68;56.00
12360;BME280;6244;51.460;7.090;2022-11-13T21:18:07;49026.38;;;-141.68;56.12
12360;BME280;6244;51.460;7.090;2022-11-13T21:23:11;49026.38;;;-141.68;55.99
12360;BME280;6244;51.460;7.090;2022-11-13T21:28:20;49022.41;;;-141.68;56.11
12360;BME280;6244;51.460;7.090;2022-11-13T21:33:21;49026.38;;;-141.68;55.94
12360;BME280;6244;51.460;7.090;2022-11-13T21:38:22;49026.38;;;-141.68;56.16
12360;BME280;6244;51.460;7.090;2022-11-13T21:43:28;49026.38;;;-141.68;55.97
12360;BME280;6244;51.460;7.090;2022-11-13T21:48:27;49026.38;;;-141.68;56.00
12360;BME280;6244;51.460;7.090;2022-11-13T21:53:27;49026.38;;;-141.68;55.96
12360;BME280;6244;51.460;7.090;2022-11-13T21:58:36;49026.38;;;-141.68;55.90
12360;BME280;6244;51.460;7.090;2022-11-13T22:03:54;49024.41;;;-141.68;56.04
12360;BME280;6244;51.460;7.090;2022-11-13T22:09:08;49026.38;;;-141.68;56.65
12360;BME280;6244;51.460;7.090;2022-11-13T22:14:15;49026.38;;;-141.68;57.19
12360;BME280;6244;51.460;7.090;2022-11-13T22:19:13;49024.41;;;-141.68;58.09
12360;BME280;6244;51.460;7.090;2022-11-13T22:24:13;49024.41;;;-141.68;58.99
12360;BME280;6244;51.460;7.090;2022-11-13T22:29:11;49024.41;;;-141.68;59.07
12360;BME280;6244;51.460;7.090;2022-11-13T22:34:14;49026.38;;;-141.68;58.85
12360;BME280;6244;51.460;7.090;2022-11-13T22:39:12;49026.38;;;-141.68;58.87
12360;BME280;6244;51.460;7.090;2022-11-13T22:44:11;49026.38;;;-141.68;58.99
12360;BME280;6244;51.460;7.090;2022-11-13T22:49:10;49024.41;;;-141.68;59.06
12360;BME280;6244;51.460;7.090;2022-11-13T22:54:09;49026.38;;;-141.68;58.87
12360;BME280;6244;51.460;7.090;2022-11-13T22:59:10;49026.38;;;-141.68;58.63
12360;BME280;6244;51.460;7.090;2022-11-13T23:04:11;49026.38;;;-141.68;58.67
12360;BME280;6244;51.460;7.090;2022-11-13T23:09:08;49026.38;;;-141.68;58.60
12360;BME280;6244;51.460;7.090;2022-11-13T23:14:09;49024.41;;;-141.68;58.72
12360;BME280;6244;51.460;7.090;2022-11-13T23:19:06;49024.41;;;-141.68;58.73
12360;BME280;6244;51.460;7.090;2022-11-13T23:24:04;49024.41;;;-141.68;58.62
12360;BME280;6244;51.460;7.090;2022-11-13T23:29:01;49026.38;;;-141.68;58.89
12360;BME280;6244;51.460;7.090;2022-11-13T23:33:58;49024.41;;;-141.68;58.49
12360;BME280;6244;51.460;7.090;2022-11-13T23:38:57;49026.38;;;-141.68;58.79
12360;BME280;6244;51.460;7.090;2022-11-13T23:43:56;49024.41;;;-141.68;58.92
12360;BME280;6244;51.460;7.090;2022-11-13T23:48:52;49024.41;;;-141.68;58.94
12360;BME280;6244;51.460;7.090;2022-11-13T23:53:50;49024.41;;;-141.68;59.18
12360;BME280;6244;51.460;7.090;2022-11-13T23:58:47;49026.38;;;-141.68;59.30
